createdAt,value
2019-05-25T00:01:57.920Z,15.80
2019-05-25T00:04:27.627Z,16.00
2019-05-25T00:06:57.414Z,16.30
2019-05-25T00:09:27.008Z,15.80
2019-05-25T00:11:57.773Z,15.80
2019-05-25T00:14:27.567Z,15.90
2019-05-25T00:16:57.203Z,15.50
2019-05-25T00:19:26.911Z,15.80
2019-05-25T00:21:56.625Z,15.80
2019-05-25T00:24:26.226Z,15.70
2019-05-25T00:26:55.875Z,15.70
2019-05-25T00:29:25.547Z,15.70
2019-05-25T00:31:55.276Z,15.70
2019-05-25T00:34:24.971Z,15.60
2019-05-25T00:36:54.853Z,15.60
2019-05-25T00:39:24.503Z,15.60
2019-05-25T00:41:54.357Z,15.50
2019-05-25T00:44:24.020Z,15.60
2019-05-25T00:46:53.826Z,15.60
2019-05-25T00:49:23.532Z,15.50
2019-05-25T00:51:53.648Z,15.50
2019-05-25T00:54:27.882Z,15.50
2019-05-25T00:56:54.757Z,15.40
2019-05-25T00:59:24.443Z,15.40
2019-05-25T01:01:54.179Z,15.40
2019-05-25T01:04:23.808Z,15.40
2019-05-25T01:06:53.636Z,15.40
2019-05-25T01:09:23.267Z,15.40
2019-05-25T01:11:52.898Z,15.50
2019-05-25T01:14:22.605Z,15.10
2019-05-25T01:16:52.262Z,14.80
2019-05-25T01:19:23.433Z,15.20
2019-05-25T01:21:53.103Z,15.20
2019-05-25T01:24:22.756Z,15.20
2019-05-25T01:26:52.363Z,15.20
2019-05-25T01:29:22.128Z,15.10
2019-05-25T01:31:51.720Z,15.10
2019-05-25T01:34:21.369Z,15.00
2019-05-25T01:36:53.811Z,15.10
2019-05-25T01:39:23.472Z,15.40
2019-05-25T01:44:22.200Z,15.10
2019-05-25T01:46:51.800Z,15.00
2019-05-25T01:49:21.513Z,15.80
2019-05-25T01:51:51.200Z,14.70
2019-05-25T01:54:20.883Z,14.90
2019-05-25T01:56:50.487Z,14.90
2019-05-25T01:59:20.144Z,14.50
2019-05-25T02:01:49.786Z,14.10
2019-05-25T02:04:19.538Z,14.90
2019-05-25T02:06:49.193Z,14.70
2019-05-25T02:09:18.860Z,15.20
2019-05-25T02:11:48.586Z,14.50
2019-05-25T02:14:18.314Z,14.80
2019-05-25T02:16:48.019Z,14.60
2019-05-25T02:19:17.626Z,14.60
2019-05-25T02:21:47.275Z,14.70
2019-05-25T02:26:45.957Z,14.90
2019-05-25T02:29:15.547Z,13.70
2019-05-25T02:31:45.187Z,14.80
2019-05-25T02:34:14.847Z,14.60
2019-05-25T02:36:44.503Z,14.70
2019-05-25T02:41:43.276Z,14.80
2019-05-25T02:44:12.948Z,14.30
2019-05-25T02:46:42.594Z,13.90
2019-05-25T02:49:12.345Z,14.50
2019-05-25T02:54:11.020Z,14.10
2019-05-25T02:56:40.826Z,14.70
2019-05-25T02:59:10.498Z,14.50
2019-05-25T03:01:40.111Z,14.70
2019-05-25T03:04:09.909Z,14.10
2019-05-25T03:06:39.717Z,14.30
2019-05-25T03:11:39.911Z,14.40
2019-05-25T03:16:38.628Z,14.80
2019-05-25T03:19:08.290Z,14.30
2019-05-25T03:24:06.956Z,14.50
2019-05-25T03:26:36.632Z,14.70
2019-05-25T03:29:06.302Z,14.70
2019-05-25T03:31:36.038Z,14.70
2019-05-25T03:34:05.899Z,15.20
2019-05-25T03:36:35.574Z,15.30
2019-05-25T03:39:07.190Z,14.90
2019-05-25T03:41:36.993Z,15.00
2019-05-25T03:44:06.659Z,14.30
2019-05-25T03:46:36.214Z,14.90
2019-05-25T03:49:06.001Z,15.20
2019-05-25T03:51:35.736Z,15.00
2019-05-25T03:54:05.385Z,15.30
2019-05-25T03:56:35.155Z,15.00
2019-05-25T03:59:04.995Z,15.10
2019-05-25T04:01:34.712Z,15.00
2019-05-25T04:04:04.428Z,15.10
2019-05-25T04:06:34.199Z,16.30
2019-05-25T04:09:05.835Z,15.70
2019-05-25T04:11:35.567Z,16.10
2019-05-25T04:14:05.296Z,15.70
2019-05-25T04:16:35.025Z,15.50
2019-05-25T04:19:04.829Z,15.50
2019-05-25T04:21:34.531Z,15.40
2019-05-25T04:24:04.617Z,15.10
2019-05-25T04:26:34.291Z,15.80
2019-05-25T04:29:03.955Z,15.60
2019-05-25T04:31:33.657Z,15.40
2019-05-25T04:34:03.362Z,15.40
2019-05-25T04:39:02.263Z,15.00
2019-05-25T04:41:32.007Z,15.30
2019-05-25T04:44:01.728Z,15.60
2019-05-25T04:46:31.424Z,15.40
2019-05-25T04:49:01.078Z,15.60
2019-05-25T04:51:30.899Z,15.10
2019-05-25T04:54:00.731Z,15.60
2019-05-25T04:56:39.423Z,14.80
2019-05-25T04:59:01.867Z,15.60
2019-05-25T05:01:31.699Z,15.10
2019-05-25T05:08:59.582Z,14.80
2019-05-25T05:11:30.345Z,14.50
2019-05-25T05:14:00.072Z,15.50
2019-05-25T05:16:29.770Z,15.20
2019-05-25T05:23:57.734Z,14.90
2019-05-25T05:26:27.426Z,15.00
2019-05-25T05:28:57.102Z,15.20
2019-05-25T05:31:26.911Z,14.70
2019-05-25T05:33:56.683Z,14.90
2019-05-25T05:36:28.400Z,14.50
2019-05-25T05:38:59.309Z,15.00
2019-05-25T05:41:31.835Z,15.30
2019-05-25T05:44:04.435Z,15.20
2019-05-25T05:46:35.080Z,14.90
2019-05-25T05:49:05.422Z,15.20
2019-05-25T05:51:38.902Z,15.20
2019-05-25T05:56:39.297Z,15.40
2019-05-25T06:04:08.617Z,16.30
2019-05-25T06:06:38.327Z,15.20
2019-05-25T06:11:38.019Z,14.80
2019-05-25T06:14:07.790Z,14.90
2019-05-25T06:16:37.713Z,15.70
2019-05-25T06:19:07.789Z,15.30
2019-05-25T06:21:37.683Z,15.00
2019-05-25T06:24:09.322Z,15.00
2019-05-25T06:29:13.260Z,15.30
2019-05-25T06:31:42.964Z,15.00
2019-05-25T06:34:16.745Z,15.00
2019-05-25T06:36:49.617Z,15.40
2019-05-25T06:39:19.365Z,15.30
2019-05-25T06:44:18.131Z,15.00
2019-05-25T06:46:47.792Z,15.60
2019-05-25T06:49:17.598Z,14.80
2019-05-25T06:51:47.361Z,14.80
2019-05-25T06:54:17.100Z,15.40
2019-05-25T06:56:46.815Z,15.50
2019-05-25T06:59:18.668Z,15.80
2019-05-25T07:01:48.385Z,16.00
2019-05-25T07:04:18.192Z,15.10
2019-05-25T07:06:47.907Z,16.00
2019-05-25T07:09:17.572Z,15.10
2019-05-25T07:11:47.266Z,15.00
2019-05-25T07:14:17.054Z,15.60
2019-05-25T07:16:46.666Z,15.40
2019-05-25T07:19:16.451Z,15.90
2019-05-25T07:21:46.287Z,15.50
2019-05-25T07:24:15.990Z,15.50
2019-05-25T07:26:45.594Z,16.60
2019-05-25T07:29:18.391Z,15.90
2019-05-25T07:31:48.150Z,16.10
2019-05-25T07:34:17.820Z,16.10
2019-05-25T07:36:47.694Z,16.00
2019-05-25T07:39:17.400Z,15.70
2019-05-25T07:41:47.245Z,15.60
2019-05-25T07:46:46.693Z,16.80
2019-05-25T07:49:16.721Z,16.30
2019-05-25T07:51:46.381Z,16.40
2019-05-25T07:54:16.023Z,16.40
2019-05-25T07:56:45.756Z,16.30
2019-05-25T07:59:15.421Z,16.40
2019-05-25T08:01:45.193Z,16.40
2019-05-25T08:04:16.795Z,16.40
2019-05-25T08:06:46.508Z,16.50
2019-05-25T08:09:16.202Z,16.50
2019-05-25T08:11:46.854Z,16.50
2019-05-25T08:14:16.484Z,16.60
2019-05-25T08:16:46.248Z,16.60
2019-05-25T08:19:16.436Z,16.80
2019-05-25T08:21:46.076Z,16.90
2019-05-25T08:24:16.297Z,17.00
2019-05-25T08:26:45.911Z,17.00
2019-05-25T08:29:15.535Z,17.00
2019-05-25T08:31:45.321Z,17.00
2019-05-25T08:34:14.930Z,17.00
2019-05-25T08:36:44.539Z,14.20
2019-05-25T08:39:15.203Z,17.10
2019-05-25T08:41:45.753Z,17.20
2019-05-25T08:44:15.448Z,17.30
2019-05-25T08:46:45.596Z,17.40
2019-05-25T08:49:15.211Z,17.50
2019-05-25T08:51:47.726Z,17.60
2019-05-25T08:54:17.409Z,17.70
2019-05-25T08:56:47.175Z,17.70
2019-05-25T08:59:16.890Z,17.70
2019-05-25T09:01:46.468Z,17.70
2019-05-25T09:04:16.101Z,17.80
2019-05-25T09:06:45.750Z,17.80
2019-05-25T09:09:15.489Z,17.80
2019-05-25T09:11:45.091Z,17.80
2019-05-25T09:14:14.761Z,17.90
2019-05-25T09:16:44.421Z,18.10
2019-05-25T09:19:14.091Z,18.10
2019-05-25T09:21:43.850Z,18.10
2019-05-25T09:24:13.554Z,18.20
2019-05-25T09:26:43.278Z,18.30
2019-05-25T09:29:12.965Z,18.30
2019-05-25T09:31:42.574Z,18.30
2019-05-25T09:34:12.271Z,18.20
2019-05-25T09:36:41.967Z,18.30
2019-05-25T09:39:11.635Z,18.30
2019-05-25T09:41:41.248Z,18.40
2019-05-25T09:44:10.865Z,18.40
2019-05-25T09:46:40.576Z,18.30
2019-05-25T09:49:10.286Z,18.20
2019-05-25T09:51:39.910Z,18.20
2019-05-25T09:54:09.596Z,18.10
2019-05-25T09:56:39.272Z,18.10
2019-05-25T09:59:19.704Z,18.10
2019-05-25T10:01:40.214Z,18.20
2019-05-25T10:04:09.860Z,18.30
2019-05-25T10:06:39.488Z,18.30
2019-05-25T10:09:09.179Z,18.30
2019-05-25T10:11:38.858Z,18.20
2019-05-25T10:14:08.495Z,18.20
2019-05-25T10:16:38.139Z,18.30
2019-05-25T10:19:07.838Z,18.30
2019-05-25T10:21:37.521Z,18.30
2019-05-25T10:24:07.259Z,18.30
2019-05-25T10:26:36.998Z,18.20
2019-05-25T10:29:06.632Z,18.20
2019-05-25T10:31:36.251Z,18.10
2019-05-25T10:34:05.925Z,18.20
2019-05-25T10:36:35.588Z,18.10
2019-05-25T10:39:07.741Z,18.10
2019-05-25T10:41:37.394Z,18.00
2019-05-25T10:44:07.117Z,18.10
2019-05-25T10:46:36.957Z,18.00
2019-05-25T10:49:06.566Z,18.00
2019-05-25T10:51:36.204Z,18.00
2019-05-25T10:54:06.084Z,18.10
2019-05-25T10:56:37.515Z,18.10
2019-05-25T10:59:07.633Z,18.20
2019-05-25T11:01:37.265Z,18.20
2019-05-25T11:04:07.066Z,18.20
2019-05-25T11:06:36.760Z,18.10
2019-05-25T11:09:07.714Z,18.10
2019-05-25T11:11:37.310Z,18.00
2019-05-25T11:14:07.057Z,18.00
2019-05-25T11:16:36.721Z,18.10
2019-05-25T11:19:06.375Z,18.20
2019-05-25T11:21:36.096Z,18.30
2019-05-25T11:24:05.962Z,18.40
2019-05-25T11:26:44.731Z,18.30
2019-05-25T11:29:17.477Z,18.30
2019-05-25T11:31:55.796Z,18.40
2019-05-25T11:34:18.401Z,18.50
2019-05-25T11:36:48.024Z,18.50
2019-05-25T11:39:17.669Z,18.50
2019-05-25T11:41:47.355Z,18.60
2019-05-25T11:44:16.968Z,18.70
2019-05-25T11:46:46.784Z,18.70
2019-05-25T11:49:22.643Z,18.70
2019-05-25T11:51:47.726Z,18.80
2019-05-25T11:54:17.511Z,18.70
2019-05-25T11:56:47.247Z,18.70
2019-05-25T11:59:16.865Z,18.80
2019-05-25T12:01:46.641Z,18.80
2019-05-25T12:04:16.308Z,18.90
2019-05-25T12:06:45.980Z,19.00
2019-05-25T12:09:15.754Z,19.10
2019-05-25T12:11:45.448Z,19.20
2019-05-25T12:14:15.057Z,19.20
2019-05-25T12:16:44.680Z,19.40
2019-05-25T12:19:15.089Z,19.40
2019-05-25T12:21:44.881Z,19.40
2019-05-25T12:24:14.565Z,19.30
2019-05-25T12:26:44.194Z,19.20
2019-05-25T12:29:13.922Z,19.10
2019-05-25T12:31:43.624Z,19.10
2019-05-25T12:34:13.225Z,19.50
2019-05-25T12:36:42.868Z,19.00
2019-05-25T12:39:12.544Z,19.40
2019-05-25T12:41:42.255Z,19.40
2019-05-25T12:44:11.870Z,19.40
2019-05-25T12:46:41.711Z,19.30
2019-05-25T12:49:11.363Z,19.20
2019-05-25T12:54:09.957Z,19.10
2019-05-25T12:56:39.598Z,19.10
2019-05-25T12:59:09.292Z,19.20
2019-05-25T13:01:40.151Z,19.20
2019-05-25T13:04:09.888Z,19.40
2019-05-25T13:06:39.571Z,19.50
2019-05-25T13:09:09.261Z,19.70
2019-05-25T13:11:39.000Z,19.10
2019-05-25T13:14:14.706Z,20.20
2019-05-25T13:16:40.114Z,19.90
2019-05-25T13:21:38.798Z,21.70
2019-05-25T13:24:08.540Z,22.30
2019-05-25T13:29:07.308Z,22.00
2019-05-25T13:31:37.220Z,22.30
2019-05-25T13:34:06.885Z,22.80
2019-05-25T13:36:36.670Z,23.10
2019-05-25T13:39:07.711Z,23.30
2019-05-25T13:41:37.444Z,23.60
2019-05-25T13:44:07.142Z,24.10
2019-05-25T13:46:36.900Z,24.50
2019-05-25T13:49:06.764Z,24.90
2019-05-25T13:51:36.619Z,25.40
2019-05-25T13:54:06.307Z,25.60
2019-05-25T13:56:36.019Z,25.80
2019-05-25T13:59:05.809Z,26.00
2019-05-25T14:01:35.464Z,26.50
2019-05-25T14:04:08.299Z,26.70
2019-05-25T14:06:37.957Z,26.90
2019-05-25T14:09:08.265Z,27.10
2019-05-25T14:11:37.928Z,27.30
2019-05-25T14:14:07.526Z,27.00
2019-05-25T14:16:37.194Z,26.80
2019-05-25T14:19:06.892Z,26.90
2019-05-25T14:21:36.544Z,27.20
2019-05-25T14:24:06.269Z,27.40
2019-05-25T14:26:36.004Z,27.50
2019-05-25T14:29:05.879Z,27.50
2019-05-25T14:31:45.689Z,27.40
2019-05-25T14:34:08.423Z,27.20
2019-05-25T14:36:38.393Z,27.10
2019-05-25T14:39:09.112Z,27.00
2019-05-25T14:41:38.870Z,26.60
2019-05-25T14:44:08.684Z,26.30
2019-05-25T14:46:38.400Z,25.20
2019-05-25T14:51:39.810Z,25.50
2019-05-25T14:54:09.579Z,25.80
2019-05-25T14:56:39.696Z,25.40
2019-05-25T14:59:09.600Z,26.10
2019-05-25T15:01:39.651Z,26.20
2019-05-25T15:06:39.217Z,26.20
2019-05-25T15:09:25.861Z,25.40
2019-05-25T15:11:55.593Z,25.10
2019-05-25T15:14:27.462Z,24.60
2019-05-25T15:16:57.246Z,24.60
2019-05-25T15:19:26.991Z,24.20
2019-05-25T15:24:26.078Z,24.60
2019-05-25T15:29:56.111Z,24.20
2019-05-25T15:37:26.854Z,23.60
2019-05-25T15:44:54.555Z,23.80
2019-05-25T15:49:53.733Z,22.90
2019-05-25T15:52:23.623Z,22.80
2019-05-25T15:54:53.443Z,22.70
2019-05-25T15:57:23.348Z,22.30
2019-05-25T15:59:53.225Z,21.70
2019-05-25T16:02:35.589Z,22.20
2019-05-25T16:07:26.166Z,21.50
2019-05-25T16:09:57.460Z,21.70
2019-05-25T16:12:39.962Z,22.00
2019-05-25T16:15:10.174Z,22.40
2019-05-25T16:17:42.111Z,21.90
2019-05-25T16:20:16.719Z,22.20
2019-05-25T16:23:00.765Z,21.80
2019-05-25T16:25:33.860Z,21.80
2019-05-25T16:28:04.090Z,20.80
2019-05-25T16:33:13.030Z,20.20
2019-05-25T16:35:35.413Z,20.80
2019-05-25T16:40:39.145Z,19.90
2019-05-25T16:43:10.865Z,19.60
2019-05-25T16:45:44.049Z,19.70
2019-05-25T16:48:17.088Z,20.90
2019-05-25T16:53:27.933Z,19.70
2019-05-25T16:58:27.526Z,19.60
2019-05-25T17:00:57.463Z,18.40
2019-05-25T17:03:32.222Z,18.50
2019-05-25T17:06:04.384Z,18.30
2019-05-25T17:08:36.865Z,19.10
2019-05-25T17:11:07.034Z,18.80
2019-05-25T17:13:36.926Z,19.10
2019-05-25T17:18:37.383Z,19.00
2019-05-25T17:23:42.885Z,18.40
2019-05-25T17:26:14.987Z,17.80
2019-05-25T17:28:46.310Z,18.30
2019-05-25T17:33:46.981Z,17.70
2019-05-25T17:36:16.740Z,17.60
2019-05-25T17:38:46.461Z,18.20
2019-05-25T17:41:16.234Z,17.50
2019-05-25T17:43:45.976Z,17.20
2019-05-25T17:46:15.724Z,17.40
2019-05-25T17:51:17.018Z,16.80
2019-05-25T17:53:46.897Z,17.20
2019-05-25T17:56:17.744Z,17.30
2019-05-25T17:58:47.560Z,17.80
2019-05-25T18:01:17.304Z,16.20
2019-05-25T18:04:04.838Z,16.90
2019-05-25T18:06:18.626Z,17.10
2019-05-25T18:08:52.686Z,16.90
2019-05-25T18:11:41.508Z,17.50
2019-05-25T18:14:11.349Z,16.30
2019-05-25T18:16:41.013Z,16.60
2019-05-25T18:19:10.778Z,16.60
2019-05-25T18:21:40.540Z,16.20
2019-05-25T18:24:10.188Z,16.50
2019-05-25T18:29:09.014Z,16.10
2019-05-25T18:31:38.668Z,16.20
2019-05-25T18:34:21.092Z,16.00
2019-05-25T18:36:40.030Z,16.10
2019-05-25T18:39:09.685Z,16.00
2019-05-25T18:41:39.556Z,15.90
2019-05-25T18:44:09.255Z,15.50
2019-05-25T18:46:38.878Z,16.00
2019-05-25T18:49:08.720Z,15.70
2019-05-25T18:51:38.452Z,15.50
2019-05-25T18:54:10.386Z,15.80
2019-05-25T19:01:39.230Z,15.20
2019-05-25T19:04:09.196Z,15.50
2019-05-25T19:06:39.001Z,15.50
2019-05-25T19:11:39.457Z,15.10
2019-05-25T19:14:09.099Z,15.70
2019-05-25T19:16:38.876Z,14.90
2019-05-25T19:21:37.727Z,15.40
2019-05-25T19:24:07.415Z,14.90
2019-05-25T19:26:37.235Z,15.80
2019-05-25T19:29:07.039Z,15.30
2019-05-25T19:31:36.728Z,15.00
2019-05-25T19:34:06.428Z,15.60
2019-05-25T19:36:36.311Z,15.50
2019-05-25T19:39:08.313Z,16.00
2019-05-25T19:41:38.043Z,14.90
2019-05-25T19:44:07.699Z,15.30
2019-05-25T19:46:37.387Z,15.30
2019-05-25T19:49:06.987Z,16.50
2019-05-25T19:51:36.656Z,15.50
2019-05-25T19:56:35.305Z,15.30
2019-05-25T19:59:05.069Z,15.30
2019-05-25T20:01:34.662Z,14.80
2019-05-25T20:04:04.290Z,15.20
2019-05-25T20:06:33.977Z,15.50
2019-05-25T20:09:04.248Z,15.40
2019-05-25T20:11:33.948Z,15.50
2019-05-25T20:14:03.619Z,15.40
2019-05-25T20:16:33.469Z,15.40
2019-05-25T20:19:03.121Z,15.70
2019-05-25T20:21:32.805Z,15.40
2019-05-25T20:24:02.455Z,16.20
2019-05-25T20:26:32.122Z,15.70
2019-05-25T20:29:01.777Z,15.40
2019-05-25T20:31:31.426Z,15.40
2019-05-25T20:34:01.092Z,15.40
2019-05-25T20:36:30.878Z,15.40
2019-05-25T20:39:00.730Z,15.40
2019-05-25T20:41:30.401Z,15.40
2019-05-25T20:44:00.084Z,15.40
2019-05-25T20:46:29.675Z,15.40
2019-05-25T20:48:59.295Z,15.40
2019-05-25T20:51:31.178Z,15.50
2019-05-25T20:54:00.810Z,15.50
2019-05-25T20:56:30.471Z,15.60
2019-05-25T20:59:00.099Z,15.60
2019-05-25T21:01:29.801Z,15.60
2019-05-25T21:03:59.447Z,15.60
2019-05-25T21:06:29.110Z,15.60
2019-05-25T21:08:58.788Z,15.60
2019-05-25T21:11:28.494Z,15.60
2019-05-25T21:13:58.238Z,15.60
2019-05-25T21:16:36.384Z,15.60
2019-05-25T21:19:05.998Z,15.50
2019-05-25T21:21:35.725Z,15.50
2019-05-25T21:24:05.483Z,15.50
2019-05-25T21:26:35.127Z,15.50
2019-05-25T21:29:04.905Z,15.50
2019-05-25T21:31:34.545Z,15.50
2019-05-25T21:34:04.333Z,15.50
2019-05-25T21:36:34.039Z,15.50
2019-05-25T21:39:04.449Z,15.50
2019-05-25T21:41:34.105Z,15.50
2019-05-25T21:44:03.773Z,15.50
2019-05-25T21:46:33.430Z,15.50
2019-05-25T21:49:03.091Z,15.50
2019-05-25T21:51:32.761Z,15.50
2019-05-25T21:54:02.402Z,15.50
2019-05-25T21:56:32.088Z,15.50
2019-05-25T21:59:01.702Z,15.50
2019-05-25T22:01:33.000Z,15.50
2019-05-25T22:04:02.601Z,15.50
2019-05-25T22:06:32.281Z,15.50
2019-05-25T22:09:01.936Z,15.40
2019-05-25T22:11:31.611Z,15.40
2019-05-25T22:14:01.247Z,15.40
2019-05-25T22:16:31.027Z,15.40
2019-05-25T22:19:00.672Z,15.40
2019-05-25T22:21:31.853Z,15.40
2019-05-25T22:24:01.590Z,15.40
2019-05-25T22:26:31.326Z,15.40
2019-05-25T22:29:01.055Z,15.40
2019-05-25T22:31:30.824Z,15.40
2019-05-25T22:34:00.428Z,15.30
2019-05-25T22:36:39.942Z,15.30
2019-05-25T22:39:19.451Z,15.30
2019-05-25T22:41:49.146Z,15.30
2019-05-25T22:44:18.776Z,15.20
2019-05-25T22:46:48.429Z,15.20
2019-05-25T22:49:18.088Z,15.10
2019-05-25T22:51:47.713Z,15.00
2019-05-25T22:54:17.790Z,14.90
2019-05-25T22:56:47.434Z,14.80
2019-05-25T22:59:17.091Z,14.70
2019-05-25T23:01:46.783Z,14.70
2019-05-25T23:04:16.490Z,14.60
2019-05-25T23:06:57.100Z,14.60
2019-05-25T23:09:17.382Z,14.50
2019-05-25T23:11:47.007Z,14.50
2019-05-25T23:14:16.669Z,14.50
2019-05-25T23:16:46.479Z,14.40
2019-05-25T23:19:16.062Z,14.40
2019-05-25T23:21:45.687Z,14.40
2019-05-25T23:24:15.363Z,14.50
2019-05-25T23:26:44.953Z,14.50
2019-05-25T23:29:14.561Z,14.60
2019-05-25T23:31:44.255Z,14.60
2019-05-25T23:34:14.002Z,14.60
2019-05-25T23:36:43.654Z,14.60
2019-05-25T23:39:13.262Z,14.60
2019-05-25T23:41:42.874Z,14.60
2019-05-25T23:44:12.578Z,14.70
2019-05-25T23:46:42.244Z,14.70
2019-05-25T23:49:12.043Z,14.70
2019-05-25T23:51:41.754Z,14.60
2019-05-25T23:54:11.349Z,14.60
2019-05-25T23:56:40.967Z,14.60
2019-05-25T23:59:10.624Z,14.60
